createdAt,value
2022-08-03T00:02:19.270Z,97665.47
2022-08-03T00:04:47.080Z,97659.59
2022-08-03T00:07:14.796Z,97659.00
2022-08-03T00:09:42.158Z,97663.81
2022-08-03T00:12:09.877Z,97666.31
2022-08-03T00:14:37.428Z,97657.31
2022-08-03T00:17:04.821Z,97648.28
2022-08-03T00:19:32.069Z,97657.03
2022-08-03T00:21:59.406Z,97661.88
2022-08-03T00:24:26.807Z,97652.41
2022-08-03T00:26:54.167Z,97650.91
2022-08-03T00:29:21.489Z,97651.13
2022-08-03T00:31:52.237Z,97651.38
2022-08-03T00:34:36.210Z,97648.78
2022-08-03T00:37:08.134Z,97647.16
2022-08-03T00:39:35.502Z,97652.81
2022-08-03T00:42:05.020Z,97652.06
2022-08-03T00:44:39.077Z,97645.72
2022-08-03T00:47:07.183Z,97653.13
2022-08-03T00:49:34.515Z,97651.84
2022-08-03T00:52:09.677Z,97656.69
2022-08-03T00:54:38.918Z,97651.09
2022-08-03T00:57:07.915Z,97653.75
2022-08-03T00:59:37.282Z,97655.97
2022-08-03T01:02:05.150Z,97649.88
2022-08-03T01:04:32.588Z,97656.03
2022-08-03T01:07:44.539Z,97651.63
2022-08-03T01:10:25.952Z,97658.59
2022-08-03T01:13:07.347Z,97647.72
2022-08-03T01:16:16.198Z,97655.72
2022-08-03T01:19:00.032Z,97648.31
2022-08-03T01:22:06.679Z,97655.25
2022-08-03T01:25:28.634Z,97670.16
2022-08-03T01:28:14.787Z,97653.44
2022-08-03T01:30:46.012Z,97657.97
2022-08-03T01:33:20.382Z,97661.97
2022-08-03T01:36:05.638Z,97662.25
2022-08-03T01:38:39.618Z,97660.84
2022-08-03T01:41:12.242Z,97654.97
2022-08-03T01:44:27.508Z,97655.72
2022-08-03T01:46:32.444Z,97658.19
2022-08-03T01:49:01.340Z,97661.75
2022-08-03T01:52:02.681Z,97664.22
2022-08-03T01:54:29.098Z,97658.66
2022-08-03T01:56:58.549Z,97658.63
2022-08-03T01:59:29.123Z,97652.50
2022-08-03T02:02:28.233Z,97656.25
2022-08-03T02:04:46.137Z,97650.44
2022-08-03T02:07:15.142Z,97654.44
2022-08-03T02:09:47.079Z,97649.44
2022-08-03T02:15:18.666Z,97645.50
2022-08-03T02:17:47.880Z,97650.28
2022-08-03T02:20:16.508Z,97649.44
2022-08-03T02:22:45.063Z,97645.78
2022-08-03T02:25:15.552Z,97644.69
2022-08-03T02:28:02.277Z,97646.81
2022-08-03T02:30:39.212Z,97646.28
2022-08-03T02:33:14.274Z,97645.81
2022-08-03T02:35:43.178Z,97648.47
2022-08-03T02:38:12.802Z,97642.88
2022-08-03T02:40:43.520Z,97646.31
2022-08-03T02:43:17.360Z,97647.63
2022-08-03T02:45:49.810Z,97647.34
2022-08-03T02:48:23.260Z,97654.56
2022-08-03T02:50:54.845Z,97647.66
2022-08-03T02:53:24.025Z,97645.59
2022-08-03T02:55:52.545Z,97648.53
2022-08-03T02:58:21.515Z,97650.06
2022-08-03T03:00:52.128Z,97646.09
2022-08-03T03:03:20.867Z,97663.63
2022-08-03T03:05:52.729Z,97660.75
2022-08-03T03:08:28.904Z,97654.88
2022-08-03T03:11:00.217Z,97660.22
2022-08-03T03:13:32.528Z,97666.06
2022-08-03T03:16:03.867Z,97659.44
2022-08-03T03:18:35.372Z,97662.38
2022-08-03T03:21:05.278Z,97654.19
2022-08-03T03:23:35.677Z,97659.75
2022-08-03T03:26:04.099Z,97664.53
2022-08-03T03:28:33.088Z,97659.75
2022-08-03T03:31:01.053Z,97665.03
2022-08-03T03:33:28.773Z,97664.44
2022-08-03T03:35:57.723Z,97670.22
2022-08-03T03:38:25.080Z,97668.50
2022-08-03T03:40:53.010Z,97671.63
2022-08-03T03:43:20.473Z,97667.06
2022-08-03T03:45:49.272Z,97666.72
2022-08-03T03:48:16.936Z,97661.03
2022-08-03T03:50:45.257Z,97667.03
2022-08-03T03:53:14.428Z,97666.91
2022-08-03T03:55:59.297Z,97668.78
2022-08-03T03:58:31.428Z,97676.47
2022-08-03T04:00:58.951Z,97670.72
2022-08-03T04:03:26.416Z,97680.78
2022-08-03T04:06:12.119Z,97685.09
2022-08-03T04:08:59.249Z,97689.81
2022-08-03T04:11:36.928Z,97688.06
2022-08-03T04:14:12.679Z,97690.47
2022-08-03T04:16:46.334Z,97693.31
2022-08-03T04:19:52.471Z,97693.94
2022-08-03T04:22:27.931Z,97694.00
2022-08-03T04:25:05.565Z,97701.78
2022-08-03T04:27:40.849Z,97701.34
2022-08-03T04:30:10.947Z,97702.88
2022-08-03T04:32:44.146Z,97704.81
2022-08-03T04:35:13.332Z,97711.06
2022-08-03T04:37:47.972Z,97712.16
2022-08-03T04:40:31.184Z,97710.34
2022-08-03T04:42:59.725Z,97709.34
2022-08-03T04:45:29.411Z,97723.31
2022-08-03T04:47:57.545Z,97711.31
2022-08-03T04:50:28.033Z,97718.38
2022-08-03T04:53:05.985Z,97712.19
2022-08-03T04:55:35.776Z,97719.75
2022-08-03T04:58:04.156Z,97729.13
2022-08-03T05:00:31.658Z,97726.53
2022-08-03T05:02:59.272Z,97725.97
2022-08-03T05:05:26.955Z,97728.25
2022-08-03T05:08:14.277Z,97725.69
2022-08-03T05:10:41.623Z,97729.94
2022-08-03T05:13:13.014Z,97723.72
2022-08-03T05:15:43.065Z,97726.19
2022-08-03T05:18:14.128Z,97734.56
2022-08-03T05:20:41.973Z,97726.38
2022-08-03T05:23:09.236Z,97736.50
2022-08-03T05:25:36.511Z,97730.22
2022-08-03T05:28:04.435Z,97732.41
2022-08-03T05:30:34.068Z,97732.91
2022-08-03T05:33:03.939Z,97735.00
2022-08-03T05:36:01.182Z,97735.53
2022-08-03T05:38:24.010Z,97740.69
2022-08-03T05:41:21.559Z,97733.63
2022-08-03T05:43:47.923Z,97740.00
2022-08-03T05:46:15.622Z,97739.56
2022-08-03T05:48:43.695Z,97740.09
2022-08-03T05:51:13.973Z,97743.53
2022-08-03T05:53:43.349Z,97739.78
2022-08-03T05:56:13.890Z,97739.91
2022-08-03T05:58:53.322Z,97734.91
2022-08-03T06:01:22.110Z,97746.81
2022-08-03T06:03:50.533Z,97743.31
2022-08-03T06:06:18.769Z,97740.31
2022-08-03T06:08:48.852Z,97753.56
2022-08-03T06:11:16.673Z,97741.16
2022-08-03T06:13:44.578Z,97740.34
2022-08-03T06:16:12.212Z,97750.84
2022-08-03T06:18:41.149Z,97747.59
2022-08-03T06:21:14.217Z,97761.47
2022-08-03T06:23:54.295Z,97757.44
2022-08-03T06:26:25.099Z,97758.38
2022-08-03T06:28:54.130Z,97759.06
2022-08-03T06:31:33.316Z,97755.78
2022-08-03T06:34:35.100Z,97751.84
2022-08-03T06:36:53.186Z,97760.72
2022-08-03T06:39:23.825Z,97765.28
2022-08-03T06:41:52.385Z,97760.47
2022-08-03T06:44:20.013Z,97759.00
2022-08-03T06:46:47.870Z,97758.53
2022-08-03T06:49:15.334Z,97758.50
2022-08-03T06:52:03.797Z,97771.41
2022-08-03T06:54:33.284Z,97772.97
2022-08-03T06:57:01.202Z,97755.25
2022-08-03T07:00:08.077Z,97764.53
2022-08-03T07:02:19.362Z,97765.34
2022-08-03T07:04:48.736Z,97760.25
2022-08-03T07:07:17.553Z,97754.81
2022-08-03T07:09:57.007Z,97752.66
2022-08-03T07:12:30.152Z,97758.25
2022-08-03T07:15:01.803Z,97749.66
2022-08-03T07:17:32.479Z,97748.63
2022-08-03T07:20:01.374Z,97743.88
2022-08-03T07:22:29.155Z,97749.88
2022-08-03T07:24:56.864Z,97754.09
2022-08-03T07:27:24.419Z,97755.00
2022-08-03T07:29:51.793Z,97759.50
2022-08-03T07:32:19.328Z,97755.63
2022-08-03T07:34:46.919Z,97761.38
2022-08-03T07:37:14.345Z,97765.78
2022-08-03T07:39:41.769Z,97757.94
2022-08-03T07:42:09.222Z,97758.53
2022-08-03T07:44:36.892Z,97760.91
2022-08-03T07:47:04.415Z,97765.34
2022-08-03T07:49:32.911Z,97763.09
2022-08-03T07:52:19.334Z,97758.09
2022-08-03T07:54:46.907Z,97763.78
2022-08-03T07:57:14.334Z,97756.56
2022-08-03T07:59:57.158Z,97758.91
2022-08-03T08:02:40.225Z,97757.44
2022-08-03T08:05:08.322Z,97759.00
2022-08-03T08:07:35.802Z,97752.25
2022-08-03T08:10:03.573Z,97755.22
2022-08-03T08:12:30.900Z,97756.34
2022-08-03T08:14:58.581Z,97752.22
2022-08-03T08:17:25.924Z,97757.00
2022-08-03T08:19:53.552Z,97758.84
2022-08-03T08:22:29.779Z,97767.75
2022-08-03T08:24:59.033Z,97761.38
2022-08-03T08:27:26.651Z,97761.09
2022-08-03T08:29:56.319Z,97758.94
2022-08-03T08:32:26.241Z,97756.50
2022-08-03T08:34:54.244Z,97754.03
2022-08-03T08:37:21.555Z,97754.19
2022-08-03T08:39:48.882Z,97757.53
2022-08-03T08:42:16.489Z,97762.16
2022-08-03T08:44:43.996Z,97755.78
2022-08-03T08:47:12.604Z,97755.88
2022-08-03T08:49:53.468Z,97757.75
2022-08-03T08:52:32.120Z,97756.84
2022-08-03T08:55:05.992Z,97762.44
2022-08-03T08:57:45.096Z,97754.88
2022-08-03T09:00:14.901Z,97759.59
2022-08-03T09:02:44.412Z,97765.25
2022-08-03T09:05:22.517Z,97762.22
2022-08-03T09:07:59.334Z,97757.22
2022-08-03T09:10:26.721Z,97762.28
2022-08-03T09:12:54.133Z,97756.38
2022-08-03T09:15:26.772Z,97752.81
2022-08-03T09:17:59.867Z,97749.97
2022-08-03T09:20:31.120Z,97751.44
2022-08-03T09:23:19.093Z,97753.31
2022-08-03T09:26:00.095Z,97752.69
2022-08-03T09:29:01.328Z,97756.59
2022-08-03T09:31:39.642Z,97750.66
2022-08-03T09:34:14.061Z,97752.38
2022-08-03T09:36:50.387Z,97760.97
2022-08-03T09:39:41.040Z,97747.94
2022-08-03T09:42:23.976Z,97741.78
2022-08-03T09:44:53.075Z,97756.25
2022-08-03T09:47:36.790Z,97754.81
2022-08-03T09:50:13.002Z,97744.69
2022-08-03T09:52:49.833Z,97738.78
2022-08-03T09:56:34.515Z,97743.41
2022-08-03T09:58:10.595Z,97735.06
2022-08-03T10:01:03.713Z,97725.22
2022-08-03T10:03:36.129Z,97716.13
2022-08-03T10:06:28.727Z,97722.75
2022-08-03T10:09:16.855Z,97727.03
2022-08-03T10:11:47.109Z,97733.44
2022-08-03T10:14:19.338Z,97727.22
2022-08-03T10:16:48.497Z,97710.59
2022-08-03T10:19:16.962Z,97711.66
2022-08-03T10:21:57.995Z,97707.69
2022-08-03T10:24:28.255Z,97717.69
2022-08-03T10:27:06.169Z,97719.97
2022-08-03T10:29:42.860Z,97727.97
2022-08-03T10:32:57.735Z,97719.69
2022-08-03T10:35:29.567Z,97719.00
2022-08-03T10:38:01.896Z,97723.19
2022-08-03T10:40:48.228Z,97718.00
2022-08-03T10:43:33.993Z,97724.19
2022-08-03T10:46:02.552Z,97718.16
2022-08-03T10:48:31.577Z,97718.78
2022-08-03T10:50:59.019Z,97715.81
2022-08-03T10:53:44.049Z,97704.16
2022-08-03T10:57:14.282Z,97713.94
2022-08-03T10:59:50.727Z,97709.91
2022-08-03T11:02:18.161Z,97708.25
2022-08-03T11:04:45.688Z,97706.41
2022-08-03T11:07:25.230Z,97700.38
2022-08-03T11:09:55.291Z,97694.63
2022-08-03T11:12:31.276Z,97700.53
2022-08-03T11:15:03.671Z,97695.22
2022-08-03T11:17:33.864Z,97693.72
2022-08-03T11:20:14.394Z,97688.91
2022-08-03T11:22:54.677Z,97693.31
2022-08-03T11:25:53.718Z,97687.69
2022-08-03T11:28:30.700Z,97692.00
2022-08-03T11:31:46.727Z,97682.94
2022-08-03T11:34:12.184Z,97677.44
2022-08-03T11:37:28.571Z,97674.16
2022-08-03T11:39:58.877Z,97678.44
2022-08-03T11:42:27.105Z,97675.78
2022-08-03T11:44:58.297Z,97681.66
2022-08-03T11:47:30.088Z,97677.38
2022-08-03T11:50:02.057Z,97678.75
2022-08-03T11:52:37.976Z,97662.16
2022-08-03T11:55:11.358Z,97661.13
2022-08-03T11:59:13.094Z,97667.06
2022-08-03T12:00:28.909Z,97664.31
2022-08-03T12:03:04.359Z,97652.00
2022-08-03T12:05:52.850Z,97650.09
2022-08-03T12:08:33.435Z,97647.34
2022-08-03T12:11:06.910Z,97653.59
2022-08-03T12:14:44.982Z,97647.34
2022-08-03T12:16:34.759Z,97651.25
2022-08-03T12:19:09.278Z,97640.34
2022-08-03T12:21:56.810Z,97644.63
2022-08-03T12:24:28.509Z,97646.16
2022-08-03T12:26:59.975Z,97650.47
2022-08-03T12:29:27.843Z,97640.72
2022-08-03T12:31:56.148Z,97647.72
2022-08-03T12:34:23.768Z,97649.31
2022-08-03T12:36:55.913Z,97640.34
2022-08-03T12:39:30.858Z,97643.44
2022-08-03T12:41:58.727Z,97637.94
2022-08-03T12:44:35.138Z,97645.34
2022-08-03T12:47:06.754Z,97634.84
2022-08-03T12:49:54.209Z,97641.88
2022-08-03T12:52:23.154Z,97637.19
2022-08-03T12:55:01.314Z,97635.97
2022-08-03T12:57:42.194Z,97635.19
2022-08-03T13:00:21.362Z,97633.28
2022-08-03T13:03:39.134Z,97635.19
2022-08-03T13:06:01.790Z,97639.81
2022-08-03T13:08:29.183Z,97632.09
2022-08-03T13:10:56.912Z,97639.44
2022-08-03T13:13:39.897Z,97629.50
2022-08-03T13:16:07.164Z,97631.34
2022-08-03T13:18:34.542Z,97624.88
2022-08-03T13:21:02.303Z,97633.13
2022-08-03T13:23:29.768Z,97626.88
2022-08-03T13:25:57.041Z,97631.84
2022-08-03T13:28:24.322Z,97629.94
2022-08-03T13:30:51.771Z,97629.53
2022-08-03T13:33:19.205Z,97631.50
2022-08-03T13:35:46.533Z,97625.25
2022-08-03T13:38:15.386Z,97629.94
2022-08-03T13:40:44.733Z,97623.38
2022-08-03T13:43:13.479Z,97621.91
2022-08-03T13:45:43.626Z,97630.13
2022-08-03T13:48:14.848Z,97622.75
2022-08-03T13:51:05.451Z,97625.84
2022-08-03T13:53:51.137Z,97625.25
2022-08-03T13:56:18.650Z,97621.19
2022-08-03T13:58:46.090Z,97618.13
2022-08-03T14:01:13.619Z,97611.91
2022-08-03T14:03:41.198Z,97620.47
2022-08-03T14:06:08.705Z,97615.28
2022-08-03T14:08:36.154Z,97607.19
2022-08-03T14:11:04.336Z,97613.16
2022-08-03T14:13:31.738Z,97604.56
2022-08-03T14:15:58.990Z,97607.25
2022-08-03T14:18:27.615Z,97601.03
2022-08-03T14:21:03.359Z,97596.03
2022-08-03T14:23:34.030Z,97604.19
2022-08-03T14:26:01.554Z,97602.66
2022-08-03T14:28:28.838Z,97609.63
2022-08-03T14:30:56.670Z,97591.84
2022-08-03T14:33:24.744Z,97598.03
2022-08-03T14:35:53.551Z,97592.88
2022-08-03T14:38:21.623Z,97593.94
2022-08-03T14:40:50.264Z,97592.03
2022-08-03T14:43:21.490Z,97592.94
2022-08-03T14:45:52.504Z,97588.88
2022-08-03T14:50:31.699Z,97591.69
2022-08-03T14:51:09.460Z,97584.72
2022-08-03T14:53:36.942Z,97584.72
2022-08-03T14:56:09.842Z,97592.59
2022-08-03T14:58:38.300Z,97581.25
2022-08-03T15:02:03.029Z,97579.66
2022-08-03T15:03:54.844Z,97579.72
2022-08-03T15:06:22.062Z,97578.44
2022-08-03T15:09:06.273Z,97581.53
2022-08-03T15:11:37.362Z,97578.00
2022-08-03T15:14:08.998Z,97577.91
2022-08-03T15:16:38.253Z,97573.97
2022-08-03T15:20:05.564Z,97573.50
2022-08-03T15:21:53.356Z,97571.97
2022-08-03T15:24:20.800Z,97570.84
2022-08-03T15:26:48.222Z,97575.00
2022-08-03T15:30:04.875Z,97569.50
2022-08-03T15:32:07.312Z,97572.03
2022-08-03T15:34:36.443Z,97569.28
2022-08-03T15:37:23.193Z,97564.38
2022-08-03T15:39:59.203Z,97564.25
2022-08-03T15:42:30.327Z,97561.25
2022-08-03T15:44:57.846Z,97557.78
2022-08-03T15:47:25.500Z,97561.19
2022-08-03T15:49:53.061Z,97569.16
2022-08-03T15:52:20.439Z,97565.25
2022-08-03T15:54:47.807Z,97558.66
2022-08-03T15:57:15.156Z,97559.69
2022-08-03T15:59:42.423Z,97559.69
2022-08-03T16:02:10.096Z,97556.53
2022-08-03T16:04:37.446Z,97556.31
2022-08-03T16:07:05.164Z,97550.47
2022-08-03T16:09:42.819Z,97544.66
2022-08-03T16:12:13.286Z,97543.81
2022-08-03T16:14:52.910Z,97544.84
2022-08-03T16:17:22.190Z,97547.78
2022-08-03T16:19:50.191Z,97537.41
2022-08-03T16:22:19.598Z,97541.22
2022-08-03T16:24:49.643Z,97541.53
2022-08-03T16:27:36.788Z,97540.19
2022-08-03T16:30:06.872Z,97539.69
2022-08-03T16:32:34.449Z,97537.44
2022-08-03T16:35:03.042Z,97533.78
2022-08-03T16:37:39.058Z,97536.50
2022-08-03T16:40:17.357Z,97534.91
2022-08-03T16:42:47.274Z,97540.19
2022-08-03T16:45:14.820Z,97534.13
2022-08-03T16:47:42.231Z,97532.47
2022-08-03T16:50:17.253Z,97536.41
2022-08-03T16:52:48.540Z,97538.28
2022-08-03T16:55:42.945Z,97541.69
2022-08-03T16:58:04.947Z,97539.13
2022-08-03T17:00:41.453Z,97538.50
2022-08-03T17:03:18.833Z,97542.41
2022-08-03T17:05:49.928Z,97545.59
2022-08-03T17:08:26.127Z,97538.03
2022-08-03T17:10:56.090Z,97541.22
2022-08-03T17:13:27.613Z,97542.47
2022-08-03T17:16:10.515Z,97546.88
2022-08-03T17:18:50.131Z,97542.00
2022-08-03T17:21:23.114Z,97542.34
2022-08-03T17:24:19.933Z,97546.25
2022-08-03T17:26:52.768Z,97541.31
2022-08-03T17:29:25.152Z,97541.03
2022-08-03T17:31:53.497Z,97547.56
2022-08-03T17:34:21.756Z,97552.75
2022-08-03T17:37:04.066Z,97537.44
2022-08-03T17:39:58.829Z,97545.50
2022-08-03T17:42:30.634Z,97544.28
2022-08-03T17:45:01.757Z,97550.03
2022-08-03T17:47:41.848Z,97547.25
2022-08-03T17:50:23.571Z,97539.19
2022-08-03T17:53:24.374Z,97549.31
2022-08-03T17:56:38.832Z,97555.00
2022-08-03T17:59:51.629Z,97549.66
2022-08-03T18:03:11.891Z,97547.31
2022-08-03T18:06:11.534Z,97547.59
2022-08-03T18:08:36.529Z,97549.94
2022-08-03T18:11:14.785Z,97550.09
2022-08-03T18:14:23.876Z,97548.03
2022-08-03T18:17:04.853Z,97550.00
2022-08-03T18:20:03.773Z,97540.69
2022-08-03T18:22:28.394Z,97557.78
2022-08-03T18:25:00.352Z,97553.59
2022-08-03T18:27:42.497Z,97560.88
2022-08-03T18:30:15.467Z,97555.88
2022-08-03T18:32:44.381Z,97566.78
2022-08-03T18:35:53.823Z,97571.72
2022-08-03T18:38:18.842Z,97569.09
2022-08-03T18:40:48.745Z,97571.09
2022-08-03T18:43:17.669Z,97575.84
2022-08-03T18:45:55.790Z,97575.06
2022-08-03T18:48:46.545Z,97574.44
2022-08-03T18:51:28.749Z,97581.88
2022-08-03T18:54:45.623Z,97588.22
2022-08-03T18:57:02.039Z,97583.81
2022-08-03T18:59:52.554Z,97587.59
2022-08-03T19:02:41.108Z,97595.19
2022-08-03T19:05:23.854Z,97598.66
2022-08-03T19:08:20.026Z,97599.28
2022-08-03T19:11:00.772Z,97601.16
2022-08-03T19:13:41.530Z,97601.16
2022-08-03T19:16:24.602Z,97599.91
2022-08-03T19:18:55.954Z,97602.28
2022-08-03T19:21:23.641Z,97591.41
2022-08-03T19:23:51.688Z,97598.34
2022-08-03T19:26:30.265Z,97596.00
2022-08-03T19:28:59.686Z,97599.91
2022-08-03T19:31:30.804Z,97600.38
2022-08-03T19:34:00.435Z,97594.41
2022-08-03T19:36:29.052Z,97598.00
2022-08-03T19:38:58.242Z,97600.34
2022-08-03T19:44:29.411Z,97596.72
2022-08-03T19:47:08.980Z,97598.75
2022-08-03T19:50:06.302Z,97595.94
2022-08-03T19:52:31.400Z,97602.66
2022-08-03T19:55:00.750Z,97591.66
2022-08-03T19:57:30.860Z,97596.84
2022-08-03T19:59:59.285Z,97601.03
2022-08-03T20:02:33.659Z,97597.72
2022-08-03T20:05:02.189Z,97604.16
2022-08-03T20:07:33.066Z,97609.34
2022-08-03T20:10:04.338Z,97602.06
2022-08-03T20:12:39.174Z,97601.75
2022-08-03T20:15:08.057Z,97596.53
2022-08-03T20:17:57.025Z,97595.56
2022-08-03T20:20:33.619Z,97594.31
2022-08-03T20:23:10.081Z,97599.47
2022-08-03T20:25:58.177Z,97598.31
2022-08-03T20:28:34.970Z,97597.97
2022-08-03T20:31:17.619Z,97593.84
2022-08-03T20:33:46.461Z,97600.59
2022-08-03T20:36:18.802Z,97593.78
2022-08-03T20:38:48.357Z,97593.16
2022-08-03T20:41:17.564Z,97597.97
2022-08-03T20:43:46.589Z,97607.69
2022-08-03T20:46:29.230Z,97596.84
2022-08-03T20:49:04.097Z,97599.25
2022-08-03T20:51:50.448Z,97595.94
2022-08-03T20:54:31.155Z,97596.84
2022-08-03T20:57:04.217Z,97599.03
2022-08-03T20:59:50.338Z,97598.81
2022-08-03T21:02:30.001Z,97605.09
2022-08-03T21:05:03.362Z,97606.34
2022-08-03T21:08:05.548Z,97604.78
2022-08-03T21:10:32.517Z,97602.13
2022-08-03T21:13:02.695Z,97598.75
2022-08-03T21:13:18.190Z,97601.94
2022-08-03T21:16:02.935Z,97610.16
2022-08-03T21:18:49.716Z,97606.03
2022-08-03T21:21:22.869Z,97609.00
2022-08-03T21:23:53.943Z,97614.16
2022-08-03T21:26:25.317Z,97615.25
2022-08-03T21:28:56.523Z,97618.38
2022-08-03T21:31:26.598Z,97612.38
2022-08-03T21:33:58.605Z,97607.03
2022-08-03T21:36:32.228Z,97611.00
2022-08-03T21:39:01.294Z,97609.91
2022-08-03T21:41:32.634Z,97613.47
2022-08-03T21:44:01.223Z,97609.22
2022-08-03T21:46:35.831Z,97603.41
2022-08-03T21:50:05.404Z,97605.38
2022-08-03T21:52:00.296Z,97606.19
2022-08-03T21:54:37.964Z,97599.84
2022-08-03T21:57:22.819Z,97604.38
2022-08-03T22:00:04.486Z,97602.50
2022-08-03T22:02:42.962Z,97600.91
2022-08-03T22:05:16.297Z,97601.00
2022-08-03T22:07:44.340Z,97603.03
2022-08-03T22:10:13.620Z,97598.84
2022-08-03T22:12:41.909Z,97598.84
2022-08-03T22:15:13.486Z,97602.91
2022-08-03T22:17:53.646Z,97601.94
2022-08-03T22:20:22.344Z,97600.06
2022-08-03T22:22:57.010Z,97596.91
2022-08-03T22:25:32.621Z,97604.91
2022-08-03T22:28:09.542Z,97599.59
2022-08-03T22:30:38.615Z,97599.66
2022-08-03T22:33:11.097Z,97594.44
2022-08-03T22:35:51.569Z,97597.19
2022-08-03T22:38:19.352Z,97601.25
2022-08-03T22:40:51.068Z,97591.97
2022-08-03T22:43:26.724Z,97599.19
2022-08-03T22:46:09.554Z,97597.59
2022-08-03T22:48:40.945Z,97595.03
2022-08-03T22:51:09.447Z,97603.72
2022-08-03T22:53:38.360Z,97603.91
2022-08-03T22:56:06.666Z,97594.94
2022-08-03T22:58:34.066Z,97601.34
2022-08-03T23:01:09.075Z,97604.31
2022-08-03T23:04:00.538Z,97603.53
2022-08-03T23:06:35.655Z,97599.25
2022-08-03T23:09:14.108Z,97596.91
2022-08-03T23:11:45.686Z,97596.13
2022-08-03T23:14:18.742Z,97596.91
2022-08-03T23:16:48.359Z,97598.97
2022-08-03T23:19:25.036Z,97599.47
2022-08-03T23:22:02.944Z,97592.25
2022-08-03T23:24:38.917Z,97599.09
2022-08-03T23:27:09.345Z,97591.38
2022-08-03T23:29:37.951Z,97598.28
2022-08-03T23:32:06.588Z,97598.28
2022-08-03T23:34:53.966Z,97586.81
2022-08-03T23:37:22.097Z,97584.47
2022-08-03T23:39:49.730Z,97591.38
2022-08-03T23:42:19.757Z,97589.00
2022-08-03T23:44:53.102Z,97578.84
2022-08-03T23:47:21.310Z,97590.28
2022-08-03T23:49:49.878Z,97585.44
2022-08-03T23:52:57.622Z,97590.28
2022-08-03T23:55:47.423Z,97579.63
2022-08-03T23:58:50.237Z,97583.41
